This is the latest recevied weather packets stored in our database for station/object N2MLB-WX. If no packets are shown the sender has not sent any weather packets the latest 10 day(s).
| Time | Temp. | Humidity | Pressure | Rain* | Wind** | Luminosity | Snow |
|---|---|---|---|---|---|---|---|
| 1777962440 | 13.33° C | 90% | 999 hPa | 0 mm | - | 0 W/m² | - |
| 1777962140 | 13.33° C | 91% | 999 hPa | 0 mm | - | 0 W/m² | - |
| 1777961844 | 13.33° C | 92% | 999 hPa | 0 mm | - | 0 W/m² | - |
| 1777961540 | 12.78° C | 92% | 999 hPa | 0 mm | - | 0 W/m² | - |
| 1777961241 | 12.78° C | 93% | 999 hPa | 2.54 mm | - | 0 W/m² | - |
| 1777960939 | 12.78° C | 92% | 999 hPa | 2.54 mm | - | 0 W/m² | - |
| 1777960639 | 12.78° C | 92% | 999 hPa | 2.79 mm | - | 0 W/m² | - |
| 1777960339 | 12.78° C | 93% | 999 hPa | 3.3 mm | - | 0 W/m² | - |
| 1777960040 | 12.78° C | 93% | 999 hPa | 3.56 mm | - | 0 W/m² | - |
| 1777959740 | 13.33° C | 93% | 999 hPa | 3.81 mm | - | 0 W/m² | - |
| 1777959440 | 13.89° C | 92% | 999 hPa | 4.06 mm | - | 0 W/m² | - |
| 1777959140 | 14.44° C | 90% | 999 hPa | 2.29 mm | - | 0 W/m² | - |
| 1777958840 | 15° C | 82% | 999 hPa | 0.51 mm | - | 0 W/m² | - |
| 1777958540 | 15.56° C | 78% | 999 hPa | 0.25 mm | - | 0 W/m² | - |
| 1777958240 | 15.56° C | 80% | 999 hPa | 0.51 mm | - | 0 W/m² | - |
| 1777957939 | 15.56° C | 78% | 999 hPa | 0.51 mm | - | 0 W/m² | - |
| 1777957641 | 15.56° C | 78% | 999 hPa | 0.25 mm | - | 0 W/m² | - |
| 1777957340 | 16.67° C | 73% | 999 hPa | 0.25 mm | - | 0 W/m² | - |
| 1777957041 | 16.67° C | 69% | 999 hPa | 0.51 mm | - | 0 W/m² | - |
| 1777956739 | 16.67° C | 71% | 999 hPa | 1.02 mm | - | 0 W/m² | - |
| 1777956440 | 16.67° C | 72% | 999 hPa | 1.52 mm | - | 0 W/m² | - |
| 1777956144 | 16.67° C | 71% | 999 hPa | 12.7 mm | - | 0 W/m² | - |
| 1777955840 | 16.11° C | 75% | 999 hPa | 0 mm | - | 0 W/m² | - |
| 1777955541 | 15.56° C | 82% | 999 hPa | 0 mm | - | 0 W/m² | - |
| 1777955241 | 16.11° C | 77% | 999 hPa | 0 mm | - | 0 W/m² | - |
* Rain latest hour (hover to see other rain measurements)
** Current wind speed in m/s (hover to see current wind gust speed)